Etusivu
METAR-TAF:

METAR-TAF

Lentoasemat :

Jerez de la Frontera, Espanja

Leveyspiiri: 36-45N, Pituuspiiri: 006-04W, korkeus merenpinnasta: 27 m

Tämänhetkinen sää

Tämä raportti tehtiin 34 minuuttia sitten, kello 21.30 UTC
Tuuli 2 kn idästä/kaakosta
Lämpötila 11°C
Kosteus 100%
Ilmanpaine 1028 hPa
Näkyvyys: 8000 m

METAR: LEJR 162130Z 12002KT 8000 NSC 11/11 Q1028

Aika: 23:04 (22:04 UTC)

Sääennuste

Tämä raportti tehtiin 5 tuntia ja 4 minuuttia sitten, kello 17.00 UTC
Ennuste voimassa 16. päivästä klo 18 UTC - 17. päivään klo 18 UTC
Tuuli 5 kn lännestä/luoteesta
Näkyvyys 10 km tai enemmän
ei pilviä alle 1500 m:ssä eikä cumulonimbus-pilviä
Ajoittain
17. päivästä klo 02 UTC - 17. päivään klo 10 UTC
Näkyvyys: 2000 m
utua
Todennäköisyys 40% :
Ajoittain
17. päivästä klo 03 UTC - 17. päivään klo 09 UTC
Näkyvyys: 0400 m
100 ft:n korkeudessa
sumua

TAF: LEJR 161700Z 1618/1718 30005KT CAVOK TX21/1714Z TN07/1706Z TEMPO 1702/1710 2000 BR PROB40 TEMPO 1703/1709 0400 FG VV001

Säähavainnot ja -ennusteet yli 4000 lentoasemalta (METAR- ja TAF-raportit).

Käytössä olevat sääasemat on merkitty karttaan keltaisilla ja punaisilla pisteillä.

Aseta hiiri pisteen päälle nähdäksesi sääaseman nimen.

Klikkaa sitten nähdäksesi säähavainnot ja -ennusteet.

Kartan vaihtaminen: klikkaa mustalla rastilla varustettuja vihreitä pisteitä, niin voit zoomata sisään; viivalla varustettua vihreää pistettä, niin voit zoomata ulos tai vihreitä nuolia, niin pääset viereisille kartoille.


METAR-TAF: